Terminal Aerodrome Forecast
Issued by NWS

Home | Current Version | Previous Version | Text Only | Print | Product List | Glossary On
Versions: 1 2 3 4 5 6 7 8 9 10 11 12 13 14 15 16
000
FTAK31 PAJN 182300
TAFAKT
TAF
PAKT 182329Z 1900/1924 13010KT P6SM -SHRA SCT030 BKN040 BKN070
     FM190300 20007KT P6SM BKN030 OVC050
     FM191200 24008KT P6SM -RA BKN025 OVC040 WS020/12035KT
     FM191700 19015G25KT 6SM -RA BKN030 OVC050 WS020/11035KT
      AMD LTD TO CLD VIS AND WIND 1906/1915=

USA.gov is the U.S. government's official web portal to all federal, state and local government web resources and services.